Terminal Aerodrome Forecast
Issued by NWS

Home | Current Version | Previous Version | Text Only | Print | Product List | Glossary Off
Versions: 1 2 3 4 5 6 7 8 9 10 11 12 13 14 15 16 17 18 19 20 21 22 23 24 25 26 27 28 29 30 31 32 33 34 35 36 37 38 39 40 41 42 43 44 45 46
301 FTUS41 KBOX 242037 AAC TAFHYA TAF AMD KHYA 242037Z 2421/2518 00000KT 2SM -RA BR OVC004 FM242300 06009KT 3SM -SHRA BR OVC008 FM250200 02009KT P6SM OVC008 FM251700 02012KT P6SM BKN020=

USA.gov is the U.S. government's official web portal to all federal, state and local government web resources and services.